sensor_id;sensor_type;location;lat;lon;timestamp;P1;durP1;ratioP1;P2;durP2;ratioP2
50737;SDS011;36703;48.154;17.126;2022-12-18T00:00:26;26.55;;;12.55;;
50737;SDS011;36703;48.154;17.126;2022-12-18T00:04:27;28.92;;;13.15;;
50737;SDS011;36703;48.154;17.126;2022-12-18T00:12:30;29.92;;;13.07;;
50737;SDS011;36703;48.154;17.126;2022-12-18T00:16:32;27.23;;;13.70;;
50737;SDS011;36703;48.154;17.126;2022-12-18T00:20:36;29.65;;;13.95;;
50737;SDS011;36703;48.154;17.126;2022-12-18T00:24:40;30.02;;;14.60;;
50737;SDS011;36703;48.154;17.126;2022-12-18T00:32:43;26.15;;;12.30;;
50737;SDS011;36703;48.154;17.126;2022-12-18T00:36:46;31.15;;;13.50;;
50737;SDS011;36703;48.154;17.126;2022-12-18T00:40:48;30.50;;;13.27;;
50737;SDS011;36703;48.154;17.126;2022-12-18T00:44:51;32.35;;;14.48;;
50737;SDS011;36703;48.154;17.126;2022-12-18T00:52:54;32.00;;;14.38;;
50737;SDS011;36703;48.154;17.126;2022-12-18T00:56:55;31.65;;;13.95;;
50737;SDS011;36703;48.154;17.126;2022-12-18T01:00:57;32.95;;;15.55;;
50737;SDS011;36703;48.154;17.126;2022-12-18T01:09:00;31.55;;;15.18;;
50737;SDS011;36703;48.154;17.126;2022-12-18T01:13:02;33.22;;;14.68;;
50737;SDS011;36703;48.154;17.126;2022-12-18T01:17:04;31.88;;;14.07;;
50737;SDS011;36703;48.154;17.126;2022-12-18T01:21:08;27.73;;;12.80;;
50737;SDS011;36703;48.154;17.126;2022-12-18T01:25:12;31.88;;;14.43;;
50737;SDS011;36703;48.154;17.126;2022-12-18T01:33:15;33.45;;;15.23;;
50737;SDS011;36703;48.154;17.126;2022-12-18T01:37:16;33.97;;;15.40;;
50737;SDS011;36703;48.154;17.126;2022-12-18T01:45:24;97.00;;;46.88;;
50737;SDS011;36703;48.154;17.126;2022-12-18T01:49:31;36.28;;;16.65;;
50737;SDS011;36703;48.154;17.126;2022-12-18T01:57:34;33.03;;;14.82;;
50737;SDS011;36703;48.154;17.126;2022-12-18T02:01:37;31.17;;;14.25;;
50737;SDS011;36703;48.154;17.126;2022-12-18T02:06:23;28.20;;;14.82;;
50737;SDS011;36703;48.154;17.126;2022-12-18T02:15:19;31.73;;;14.15;;
50737;SDS011;36703;48.154;17.126;2022-12-18T02:28:28;31.00;;;14.45;;
50737;SDS011;36703;48.154;17.126;2022-12-18T02:32:49;29.80;;;15.15;;
50737;SDS011;36703;48.154;17.126;2022-12-18T02:36:54;35.92;;;15.30;;
50737;SDS011;36703;48.154;17.126;2022-12-18T02:40:59;32.97;;;15.48;;
50737;SDS011;36703;48.154;17.126;2022-12-18T02:45:02;32.67;;;15.23;;
50737;SDS011;36703;48.154;17.126;2022-12-18T02:54:09;34.42;;;16.15;;
50737;SDS011;36703;48.154;17.126;2022-12-18T03:03:11;32.13;;;15.68;;
50737;SDS011;36703;48.154;17.126;2022-12-18T03:07:22;35.92;;;16.38;;
50737;SDS011;36703;48.154;17.126;2022-12-18T03:11:36;34.05;;;15.50;;
50737;SDS011;36703;48.154;17.126;2022-12-18T03:16:00;32.95;;;15.48;;
50737;SDS011;36703;48.154;17.126;2022-12-18T03:20:09;33.22;;;16.08;;
50737;SDS011;36703;48.154;17.126;2022-12-18T03:24:15;34.63;;;15.98;;
50737;SDS011;36703;48.154;17.126;2022-12-18T03:28:21;38.03;;;16.75;;
50737;SDS011;36703;48.154;17.126;2022-12-18T03:32:31;34.25;;;16.52;;
50737;SDS011;36703;48.154;17.126;2022-12-18T03:48:58;41.55;;;18.45;;
50737;SDS011;36703;48.154;17.126;2022-12-18T03:53:21;37.20;;;17.70;;
50737;SDS011;36703;48.154;17.126;2022-12-18T03:57:43;41.70;;;17.33;;
50737;SDS011;36703;48.154;17.126;2022-12-18T04:01:47;38.25;;;16.95;;
50737;SDS011;36703;48.154;17.126;2022-12-18T04:05:52;39.08;;;17.58;;
50737;SDS011;36703;48.154;17.126;2022-12-18T04:09:57;37.28;;;17.95;;
50737;SDS011;36703;48.154;17.126;2022-12-18T04:14:03;38.60;;;17.52;;
50737;SDS011;36703;48.154;17.126;2022-12-18T04:18:06;38.70;;;18.38;;
50737;SDS011;36703;48.154;17.126;2022-12-18T04:22:15;38.75;;;17.25;;
50737;SDS011;36703;48.154;17.126;2022-12-18T04:26:21;37.30;;;17.80;;
50737;SDS011;36703;48.154;17.126;2022-12-18T04:30:40;38.53;;;18.17;;
50737;SDS011;36703;48.154;17.126;2022-12-18T04:34:41;39.70;;;17.67;;
50737;SDS011;36703;48.154;17.126;2022-12-18T04:38:43;39.55;;;18.30;;
50737;SDS011;36703;48.154;17.126;2022-12-18T04:42:49;38.95;;;17.80;;
50737;SDS011;36703;48.154;17.126;2022-12-18T04:50:52;40.10;;;17.48;;
50737;SDS011;36703;48.154;17.126;2022-12-18T04:54:53;40.58;;;18.38;;
50737;SDS011;36703;48.154;17.126;2022-12-18T05:02:56;46.65;;;19.65;;
50737;SDS011;36703;48.154;17.126;2022-12-18T05:06:58;40.70;;;18.70;;
50737;SDS011;36703;48.154;17.126;2022-12-18T05:15:05;43.42;;;18.92;;
50737;SDS011;36703;48.154;17.126;2022-12-18T05:19:07;42.88;;;18.65;;
50737;SDS011;36703;48.154;17.126;2022-12-18T05:23:09;39.03;;;18.88;;
50737;SDS011;36703;48.154;17.126;2022-12-18T05:31:12;44.25;;;18.90;;
50737;SDS011;36703;48.154;17.126;2022-12-18T05:35:14;43.03;;;18.70;;
50737;SDS011;36703;48.154;17.126;2022-12-18T05:39:15;45.75;;;19.13;;
50737;SDS011;36703;48.154;17.126;2022-12-18T05:43:17;39.72;;;18.70;;
50737;SDS011;36703;48.154;17.126;2022-12-18T05:47:20;47.03;;;20.05;;
50737;SDS011;36703;48.154;17.126;2022-12-18T05:51:22;41.97;;;18.60;;
50737;SDS011;36703;48.154;17.126;2022-12-18T05:55:23;42.40;;;19.05;;
50737;SDS011;36703;48.154;17.126;2022-12-18T06:03:26;40.75;;;17.95;;
50737;SDS011;36703;48.154;17.126;2022-12-18T06:11:29;40.78;;;17.40;;
50737;SDS011;36703;48.154;17.126;2022-12-18T06:15:31;41.17;;;17.70;;
50737;SDS011;36703;48.154;17.126;2022-12-18T06:19:32;44.83;;;18.65;;
50737;SDS011;36703;48.154;17.126;2022-12-18T06:23:34;42.85;;;18.70;;
50737;SDS011;36703;48.154;17.126;2022-12-18T06:27:36;46.72;;;19.33;;
50737;SDS011;36703;48.154;17.126;2022-12-18T06:31:38;43.35;;;18.55;;
50737;SDS011;36703;48.154;17.126;2022-12-18T06:35:39;42.63;;;18.63;;
50737;SDS011;36703;48.154;17.126;2022-12-18T06:39:42;44.65;;;18.58;;
50737;SDS011;36703;48.154;17.126;2022-12-18T06:43:44;46.55;;;18.75;;
50737;SDS011;36703;48.154;17.126;2022-12-18T06:47:46;46.33;;;19.58;;
50737;SDS011;36703;48.154;17.126;2022-12-18T06:51:47;50.28;;;18.95;;
50737;SDS011;36703;48.154;17.126;2022-12-18T06:55:49;39.03;;;18.27;;
50737;SDS011;36703;48.154;17.126;2022-12-18T06:59:51;49.08;;;19.38;;
50737;SDS011;36703;48.154;17.126;2022-12-18T07:03:53;42.75;;;17.55;;
50737;SDS011;36703;48.154;17.126;2022-12-18T07:07:56;39.25;;;17.85;;
50737;SDS011;36703;48.154;17.126;2022-12-18T07:12:00;46.17;;;18.95;;
50737;SDS011;36703;48.154;17.126;2022-12-18T07:20:20;41.25;;;17.08;;
50737;SDS011;36703;48.154;17.126;2022-12-18T07:28:23;36.45;;;16.95;;
50737;SDS011;36703;48.154;17.126;2022-12-18T07:32:24;40.97;;;18.17;;
50737;SDS011;36703;48.154;17.126;2022-12-18T07:36:26;40.60;;;17.63;;
50737;SDS011;36703;48.154;17.126;2022-12-18T07:40:27;39.22;;;17.25;;
50737;SDS011;36703;48.154;17.126;2022-12-18T07:48:30;38.78;;;16.77;;
50737;SDS011;36703;48.154;17.126;2022-12-18T07:52:32;38.67;;;16.83;;
50737;SDS011;36703;48.154;17.126;2022-12-18T08:00:35;42.55;;;18.15;;
50737;SDS011;36703;48.154;17.126;2022-12-18T08:04:37;43.80;;;19.17;;
50737;SDS011;36703;48.154;17.126;2022-12-18T08:08:38;45.75;;;19.10;;
50737;SDS011;36703;48.154;17.126;2022-12-18T08:12:42;42.70;;;19.15;;
50737;SDS011;36703;48.154;17.126;2022-12-18T08:16:43;44.83;;;20.52;;
50737;SDS011;36703;48.154;17.126;2022-12-18T08:20:45;45.95;;;20.38;;
50737;SDS011;36703;48.154;17.126;2022-12-18T08:28:49;48.83;;;19.90;;
50737;SDS011;36703;48.154;17.126;2022-12-18T08:32:51;43.83;;;19.67;;
50737;SDS011;36703;48.154;17.126;2022-12-18T08:36:54;47.63;;;20.25;;
50737;SDS011;36703;48.154;17.126;2022-12-18T08:45:05;44.85;;;20.98;;
50737;SDS011;36703;48.154;17.126;2022-12-18T08:49:08;49.42;;;22.35;;
50737;SDS011;36703;48.154;17.126;2022-12-18T08:53:11;48.47;;;22.40;;
50737;SDS011;36703;48.154;17.126;2022-12-18T09:01:14;74.18;;;36.20;;
50737;SDS011;36703;48.154;17.126;2022-12-18T09:09:17;86.70;;;40.50;;
50737;SDS011;36703;48.154;17.126;2022-12-18T09:13:18;68.97;;;32.97;;
50737;SDS011;36703;48.154;17.126;2022-12-18T09:17:21;52.30;;;23.52;;
50737;SDS011;36703;48.154;17.126;2022-12-18T09:21:23;47.08;;;22.40;;
50737;SDS011;36703;48.154;17.126;2022-12-18T09:29:26;41.65;;;20.15;;
50737;SDS011;36703;48.154;17.126;2022-12-18T09:33:27;48.13;;;22.00;;
50737;SDS011;36703;48.154;17.126;2022-12-18T09:37:29;46.22;;;21.30;;
50737;SDS011;36703;48.154;17.126;2022-12-18T09:45:55;48.53;;;20.33;;
50737;SDS011;36703;48.154;17.126;2022-12-18T09:50:05;46.70;;;20.13;;
50737;SDS011;36703;48.154;17.126;2022-12-18T09:54:35;39.55;;;17.90;;
50737;SDS011;36703;48.154;17.126;2022-12-18T09:58:41;47.17;;;23.27;;
50737;SDS011;36703;48.154;17.126;2022-12-18T10:02:53;45.92;;;23.35;;
50737;SDS011;36703;48.154;17.126;2022-12-18T10:07:18;51.63;;;23.10;;
50737;SDS011;36703;48.154;17.126;2022-12-18T10:15:54;125.25;;;58.42;;
50737;SDS011;36703;48.154;17.126;2022-12-18T10:21:23;57.38;;;25.58;;
50737;SDS011;36703;48.154;17.126;2022-12-18T10:25:19;53.55;;;23.98;;
50737;SDS011;36703;48.154;17.126;2022-12-18T10:29:41;50.85;;;23.00;;
50737;SDS011;36703;48.154;17.126;2022-12-18T10:33:45;52.50;;;23.70;;
50737;SDS011;36703;48.154;17.126;2022-12-18T10:42:19;49.92;;;23.95;;
50737;SDS011;36703;48.154;17.126;2022-12-18T10:46:20;49.03;;;22.38;;
50737;SDS011;36703;48.154;17.126;2022-12-18T10:50:28;46.40;;;21.65;;
50737;SDS011;36703;48.154;17.126;2022-12-18T10:54:35;42.90;;;20.70;;
50737;SDS011;36703;48.154;17.126;2022-12-18T10:58:38;47.75;;;22.23;;
50737;SDS011;36703;48.154;17.126;2022-12-18T11:02:40;49.63;;;21.98;;
50737;SDS011;36703;48.154;17.126;2022-12-18T11:06:52;48.13;;;23.02;;
50737;SDS011;36703;48.154;17.126;2022-12-18T11:11:15;49.42;;;23.30;;
50737;SDS011;36703;48.154;17.126;2022-12-18T11:15:26;49.13;;;23.67;;
50737;SDS011;36703;48.154;17.126;2022-12-18T11:23:36;49.05;;;22.23;;
50737;SDS011;36703;48.154;17.126;2022-12-18T11:27:52;49.88;;;23.15;;
50737;SDS011;36703;48.154;17.126;2022-12-18T11:36:39;106.68;;;49.13;;
50737;SDS011;36703;48.154;17.126;2022-12-18T11:40:47;53.15;;;28.52;;
50737;SDS011;36703;48.154;17.126;2022-12-18T11:45:01;49.30;;;24.92;;
50737;SDS011;36703;48.154;17.126;2022-12-18T11:49:28;53.05;;;27.35;;
50737;SDS011;36703;48.154;17.126;2022-12-18T11:53:36;44.72;;;20.63;;
50737;SDS011;36703;48.154;17.126;2022-12-18T12:01:55;39.70;;;18.83;;
50737;SDS011;36703;48.154;17.126;2022-12-18T12:10:46;43.55;;;19.30;;
50737;SDS011;36703;48.154;17.126;2022-12-18T12:37:35;37.70;;;18.63;;
50737;SDS011;36703;48.154;17.126;2022-12-18T12:42:20;40.70;;;19.30;;
50737;SDS011;36703;48.154;17.126;2022-12-18T12:46:49;40.00;;;17.80;;
50737;SDS011;36703;48.154;17.126;2022-12-18T12:50:57;46.28;;;20.73;;
50737;SDS011;36703;48.154;17.126;2022-12-18T12:55:04;37.70;;;18.65;;
50737;SDS011;36703;48.154;17.126;2022-12-18T12:59:19;37.67;;;18.73;;
50737;SDS011;36703;48.154;17.126;2022-12-18T13:03:43;39.50;;;18.83;;
50737;SDS011;36703;48.154;17.126;2022-12-18T13:07:55;35.28;;;18.42;;
50737;SDS011;36703;48.154;17.126;2022-12-18T13:12:12;38.03;;;18.67;;
50737;SDS011;36703;48.154;17.126;2022-12-18T13:16:32;40.25;;;18.40;;
50737;SDS011;36703;48.154;17.126;2022-12-18T13:24:42;38.25;;;20.40;;
50737;SDS011;36703;48.154;17.126;2022-12-18T13:32:48;34.35;;;17.13;;
50737;SDS011;36703;48.154;17.126;2022-12-18T13:41:32;35.35;;;18.38;;
50737;SDS011;36703;48.154;17.126;2022-12-18T13:49:39;42.72;;;18.17;;
50737;SDS011;36703;48.154;17.126;2022-12-18T13:57:51;35.47;;;17.75;;
50737;SDS011;36703;48.154;17.126;2022-12-18T14:02:15;36.58;;;17.73;;
50737;SDS011;36703;48.154;17.126;2022-12-18T14:06:22;40.42;;;18.63;;
50737;SDS011;36703;48.154;17.126;2022-12-18T14:10:23;37.60;;;18.25;;
50737;SDS011;36703;48.154;17.126;2022-12-18T14:14:25;39.88;;;19.60;;
50737;SDS011;36703;48.154;17.126;2022-12-18T14:22:37;41.80;;;19.33;;
50737;SDS011;36703;48.154;17.126;2022-12-18T14:26:49;39.50;;;17.65;;
50737;SDS011;36703;48.154;17.126;2022-12-18T14:30:51;41.13;;;18.15;;
50737;SDS011;36703;48.154;17.126;2022-12-18T14:34:55;37.17;;;18.35;;
50737;SDS011;36703;48.154;17.126;2022-12-18T14:38:57;37.95;;;19.38;;
50737;SDS011;36703;48.154;17.126;2022-12-18T14:43:00;48.30;;;21.73;;
50737;SDS011;36703;48.154;17.126;2022-12-18T14:51:03;56.28;;;24.58;;
50737;SDS011;36703;48.154;17.126;2022-12-18T14:55:26;57.88;;;24.75;;
50737;SDS011;36703;48.154;17.126;2022-12-18T14:59:28;59.92;;;25.95;;
50737;SDS011;36703;48.154;17.126;2022-12-18T15:03:31;55.95;;;24.73;;
50737;SDS011;36703;48.154;17.126;2022-12-18T15:07:43;54.83;;;24.92;;
50737;SDS011;36703;48.154;17.126;2022-12-18T15:11:47;56.97;;;25.55;;
50737;SDS011;36703;48.154;17.126;2022-12-18T15:15:49;57.80;;;26.08;;
50737;SDS011;36703;48.154;17.126;2022-12-18T15:19:52;55.00;;;25.58;;
50737;SDS011;36703;48.154;17.126;2022-12-18T15:24:00;60.58;;;26.10;;
50737;SDS011;36703;48.154;17.126;2022-12-18T15:32:04;53.53;;;23.75;;
50737;SDS011;36703;48.154;17.126;2022-12-18T15:36:19;64.63;;;25.02;;
50737;SDS011;36703;48.154;17.126;2022-12-18T15:40:24;55.83;;;24.60;;
50737;SDS011;36703;48.154;17.126;2022-12-18T15:44:25;59.83;;;24.73;;
50737;SDS011;36703;48.154;17.126;2022-12-18T15:48:27;56.05;;;25.20;;
50737;SDS011;36703;48.154;17.126;2022-12-18T15:52:30;65.05;;;24.90;;
50737;SDS011;36703;48.154;17.126;2022-12-18T15:56:40;61.47;;;26.00;;
50737;SDS011;36703;48.154;17.126;2022-12-18T16:05:05;58.13;;;25.67;;
50737;SDS011;36703;48.154;17.126;2022-12-18T16:09:15;62.50;;;26.70;;
50737;SDS011;36703;48.154;17.126;2022-12-18T16:17:19;63.33;;;27.25;;
50737;SDS011;36703;48.154;17.126;2022-12-18T16:21:21;61.83;;;26.33;;
50737;SDS011;36703;48.154;17.126;2022-12-18T16:29:29;61.40;;;25.88;;
50737;SDS011;36703;48.154;17.126;2022-12-18T16:33:30;58.95;;;25.38;;
50737;SDS011;36703;48.154;17.126;2022-12-18T16:41:33;64.00;;;25.80;;
50737;SDS011;36703;48.154;17.126;2022-12-18T16:45:36;61.42;;;26.35;;
50737;SDS011;36703;48.154;17.126;2022-12-18T16:53:39;65.28;;;25.40;;
50737;SDS011;36703;48.154;17.126;2022-12-18T16:57:40;60.13;;;25.25;;
50737;SDS011;36703;48.154;17.126;2022-12-18T17:05:43;62.88;;;26.10;;
50737;SDS011;36703;48.154;17.126;2022-12-18T17:13:46;63.55;;;26.33;;
50737;SDS011;36703;48.154;17.126;2022-12-18T17:21:50;67.03;;;27.23;;
50737;SDS011;36703;48.154;17.126;2022-12-18T17:25:56;67.80;;;26.85;;
50737;SDS011;36703;48.154;17.126;2022-12-18T17:29:59;61.17;;;27.23;;
50737;SDS011;36703;48.154;17.126;2022-12-18T17:34:02;66.22;;;28.23;;
50737;SDS011;36703;48.154;17.126;2022-12-18T17:38:03;65.57;;;28.17;;
50737;SDS011;36703;48.154;17.126;2022-12-18T17:42:05;69.78;;;29.63;;
50737;SDS011;36703;48.154;17.126;2022-12-18T17:46:10;64.63;;;27.35;;
50737;SDS011;36703;48.154;17.126;2022-12-18T17:50:14;66.38;;;28.85;;
50737;SDS011;36703;48.154;17.126;2022-12-18T17:54:15;66.32;;;26.75;;
50737;SDS011;36703;48.154;17.126;2022-12-18T17:58:17;60.50;;;26.67;;
50737;SDS011;36703;48.154;17.126;2022-12-18T18:06:20;66.60;;;27.75;;
50737;SDS011;36703;48.154;17.126;2022-12-18T18:10:23;68.25;;;29.35;;
50737;SDS011;36703;48.154;17.126;2022-12-18T18:14:24;68.80;;;30.45;;
50737;SDS011;36703;48.154;17.126;2022-12-18T18:18:27;67.85;;;29.50;;
50737;SDS011;36703;48.154;17.126;2022-12-18T18:22:29;69.90;;;29.92;;
50737;SDS011;36703;48.154;17.126;2022-12-18T18:30:35;126.63;;;56.88;;
50737;SDS011;36703;48.154;17.126;2022-12-18T18:34:37;89.18;;;35.58;;
50737;SDS011;36703;48.154;17.126;2022-12-18T18:38:38;73.25;;;30.67;;
50737;SDS011;36703;48.154;17.126;2022-12-18T18:42:40;74.95;;;30.63;;
50737;SDS011;36703;48.154;17.126;2022-12-18T18:46:43;66.03;;;28.27;;
50737;SDS011;36703;48.154;17.126;2022-12-18T18:50:54;72.15;;;29.27;;
50737;SDS011;36703;48.154;17.126;2022-12-18T18:55:00;75.80;;;29.67;;
50737;SDS011;36703;48.154;17.126;2022-12-18T18:59:01;74.28;;;30.42;;
50737;SDS011;36703;48.154;17.126;2022-12-18T19:03:03;76.13;;;29.15;;
50737;SDS011;36703;48.154;17.126;2022-12-18T19:07:07;77.15;;;31.65;;
50737;SDS011;36703;48.154;17.126;2022-12-18T19:11:08;74.47;;;30.15;;
50737;SDS011;36703;48.154;17.126;2022-12-18T19:15:32;70.55;;;29.50;;
50737;SDS011;36703;48.154;17.126;2022-12-18T19:19:34;68.40;;;28.45;;
50737;SDS011;36703;48.154;17.126;2022-12-18T19:27:37;66.93;;;28.60;;
50737;SDS011;36703;48.154;17.126;2022-12-18T19:31:39;69.88;;;28.58;;
50737;SDS011;36703;48.154;17.126;2022-12-18T19:35:41;69.80;;;29.02;;
50737;SDS011;36703;48.154;17.126;2022-12-18T19:39:43;67.35;;;29.17;;
50737;SDS011;36703;48.154;17.126;2022-12-18T19:43:45;71.80;;;29.50;;
50737;SDS011;36703;48.154;17.126;2022-12-18T19:47:47;121.63;;;51.13;;
50737;SDS011;36703;48.154;17.126;2022-12-18T19:51:49;66.15;;;26.02;;
50737;SDS011;36703;48.154;17.126;2022-12-18T19:55:50;68.10;;;27.95;;
50737;SDS011;36703;48.154;17.126;2022-12-18T19:59:52;70.00;;;27.27;;
50737;SDS011;36703;48.154;17.126;2022-12-18T20:07:55;66.47;;;26.92;;
50737;SDS011;36703;48.154;17.126;2022-12-18T20:11:57;69.72;;;27.30;;
50737;SDS011;36703;48.154;17.126;2022-12-18T20:15:58;72.78;;;27.95;;
50737;SDS011;36703;48.154;17.126;2022-12-18T20:20:00;67.00;;;28.50;;
50737;SDS011;36703;48.154;17.126;2022-12-18T20:24:02;68.05;;;25.58;;
50737;SDS011;36703;48.154;17.126;2022-12-18T20:28:04;64.47;;;26.77;;
50737;SDS011;36703;48.154;17.126;2022-12-18T20:32:05;74.63;;;28.92;;
50737;SDS011;36703;48.154;17.126;2022-12-18T20:36:09;74.20;;;29.23;;
50737;SDS011;36703;48.154;17.126;2022-12-18T20:40:14;71.63;;;27.40;;
50737;SDS011;36703;48.154;17.126;2022-12-18T20:44:16;80.65;;;29.83;;
50737;SDS011;36703;48.154;17.126;2022-12-18T20:48:18;76.78;;;29.70;;
50737;SDS011;36703;48.154;17.126;2022-12-18T20:52:19;75.90;;;29.65;;
50737;SDS011;36703;48.154;17.126;2022-12-18T20:56:21;76.28;;;28.63;;
50737;SDS011;36703;48.154;17.126;2022-12-18T21:00:23;79.20;;;31.98;;
50737;SDS011;36703;48.154;17.126;2022-12-18T21:08:26;77.63;;;31.52;;
50737;SDS011;36703;48.154;17.126;2022-12-18T21:12:28;111.97;;;43.22;;
50737;SDS011;36703;48.154;17.126;2022-12-18T21:16:33;82.63;;;33.92;;
50737;SDS011;36703;48.154;17.126;2022-12-18T21:20:35;80.10;;;32.08;;
50737;SDS011;36703;48.154;17.126;2022-12-18T21:28:38;77.20;;;29.83;;
50737;SDS011;36703;48.154;17.126;2022-12-18T21:32:40;73.60;;;30.50;;
50737;SDS011;36703;48.154;17.126;2022-12-18T21:36:41;85.07;;;32.40;;
50737;SDS011;36703;48.154;17.126;2022-12-18T21:40:43;77.88;;;30.92;;
50737;SDS011;36703;48.154;17.126;2022-12-18T21:44:46;85.57;;;32.20;;
50737;SDS011;36703;48.154;17.126;2022-12-18T21:48:49;81.68;;;33.47;;
50737;SDS011;36703;48.154;17.126;2022-12-18T21:56:58;76.00;;;30.13;;
50737;SDS011;36703;48.154;17.126;2022-12-18T22:01:02;81.65;;;32.17;;
50737;SDS011;36703;48.154;17.126;2022-12-18T22:05:05;144.52;;;57.53;;
50737;SDS011;36703;48.154;17.126;2022-12-18T22:09:09;141.63;;;57.08;;
50737;SDS011;36703;48.154;17.126;2022-12-18T22:13:14;79.82;;;30.83;;
50737;SDS011;36703;48.154;17.126;2022-12-18T22:35:18;93.03;;;33.30;;
50737;SDS011;36703;48.154;17.126;2022-12-18T22:39:21;108.60;;;41.80;;
50737;SDS011;36703;48.154;17.126;2022-12-18T22:43:28;89.35;;;34.00;;
50737;SDS011;36703;48.154;17.126;2022-12-18T22:47:29;87.03;;;31.92;;
50737;SDS011;36703;48.154;17.126;2022-12-18T22:55:33;77.00;;;29.83;;
50737;SDS011;36703;48.154;17.126;2022-12-18T22:59:34;85.75;;;31.92;;
50737;SDS011;36703;48.154;17.126;2022-12-18T23:03:36;86.90;;;31.17;;
50737;SDS011;36703;48.154;17.126;2022-12-18T23:07:37;79.53;;;29.02;;
50737;SDS011;36703;48.154;17.126;2022-12-18T23:11:39;85.73;;;31.03;;
50737;SDS011;36703;48.154;17.126;2022-12-18T23:15:40;84.93;;;32.33;;
50737;SDS011;36703;48.154;17.126;2022-12-18T23:19:42;88.40;;;32.33;;
50737;SDS011;36703;48.154;17.126;2022-12-18T23:27:45;75.68;;;27.48;;
50737;SDS011;36703;48.154;17.126;2022-12-18T23:31:47;88.17;;;31.87;;
50737;SDS011;36703;48.154;17.126;2022-12-18T23:35:48;87.33;;;32.93;;
50737;SDS011;36703;48.154;17.126;2022-12-18T23:39:50;83.07;;;31.40;;
50737;SDS011;36703;48.154;17.126;2022-12-18T23:43:52;79.23;;;31.77;;
50737;SDS011;36703;48.154;17.126;2022-12-18T23:47:54;85.70;;;32.00;;
50737;SDS011;36703;48.154;17.126;2022-12-18T23:51:55;90.97;;;33.07;;
50737;SDS011;36703;48.154;17.126;2022-12-18T23:59:59;88.00;;;31.03;;
